createdAt,value
2018-09-30T00:01:35.450Z,102038.17
2018-09-30T00:04:03.961Z,102043.39
2018-09-30T00:06:32.575Z,102050.17
2018-09-30T00:09:01.096Z,102046.18
2018-09-30T00:11:29.857Z,102045.16
2018-09-30T00:13:58.365Z,102046.45
2018-09-30T00:16:26.903Z,102046.63
2018-09-30T00:18:55.504Z,102036.78
2018-09-30T00:21:24.185Z,102040.36
2018-09-30T00:23:58.056Z,102034.19
2018-09-30T00:26:31.816Z,102028.03
2018-09-30T00:29:00.408Z,102026.95
2018-09-30T00:31:28.994Z,102019.62
2018-09-30T00:34:02.699Z,102023.89
2018-09-30T00:36:31.220Z,102012.27
2018-09-30T00:38:59.772Z,102011.70
2018-09-30T00:41:28.338Z,102010.84
2018-09-30T00:43:56.829Z,102001.36
2018-09-30T00:46:25.420Z,102006.39
2018-09-30T00:48:54.028Z,102002.88
2018-09-30T00:51:22.558Z,101992.20
2018-09-30T00:53:51.118Z,101988.73
2018-09-30T00:56:20.720Z,101989.06
2018-09-30T00:58:49.324Z,101985.03
2018-09-30T01:01:17.957Z,101990.71
2018-09-30T01:03:46.509Z,101976.92
2018-09-30T01:06:15.064Z,101975.27
2018-09-30T01:08:43.613Z,101969.27
2018-09-30T01:11:12.197Z,101966.82
2018-09-30T01:13:40.744Z,101962.50
2018-09-30T01:16:09.643Z,101954.08
2018-09-30T01:18:38.259Z,101949.13
2018-09-30T01:21:07.420Z,101950.72
2018-09-30T01:23:36.194Z,101943.67
2018-09-30T01:26:04.997Z,101938.33
2018-09-30T01:28:33.990Z,101936.22
2018-09-30T01:31:02.493Z,101933.56
2018-09-30T01:33:31.042Z,101926.78
2018-09-30T01:35:59.619Z,101922.77
2018-09-30T01:38:28.136Z,101913.86
2018-09-30T01:40:56.741Z,101907.93
2018-09-30T01:43:25.345Z,101912.22
2018-09-30T01:45:53.884Z,101904.64
2018-09-30T01:48:22.512Z,101904.62
2018-09-30T01:50:51.049Z,101899.19
2018-09-30T01:53:19.613Z,101888.91
2018-09-30T01:55:48.201Z,101884.27
2018-09-30T01:58:16.769Z,101881.75
2018-09-30T02:00:45.334Z,101881.80
2018-09-30T02:03:13.914Z,101867.28
2018-09-30T02:05:42.449Z,101873.53
2018-09-30T02:08:11.185Z,101863.82
2018-09-30T02:10:39.750Z,101861.42
2018-09-30T02:13:08.296Z,101871.92
2018-09-30T02:15:36.865Z,101867.89
2018-09-30T02:18:05.478Z,101865.17
2018-09-30T02:20:34.038Z,101862.95
2018-09-30T02:23:02.640Z,101868.06
2018-09-30T02:25:31.373Z,101862.06
2018-09-30T02:27:59.929Z,101858.23
2018-09-30T02:30:28.453Z,101851.34
2018-09-30T02:32:56.994Z,101848.56
2018-09-30T02:35:25.561Z,101851.41
2018-09-30T02:37:54.110Z,101846.38
2018-09-30T02:40:22.658Z,101845.36
2018-09-30T02:42:51.244Z,101843.47
2018-09-30T02:45:19.845Z,101845.90
2018-09-30T02:47:48.579Z,101840.52
2018-09-30T02:50:17.239Z,101840.22
2018-09-30T02:52:45.730Z,101833.75
2018-09-30T02:55:14.303Z,101832.89
2018-09-30T02:57:42.851Z,101831.27
2018-09-30T03:00:11.834Z,101822.09
2018-09-30T03:02:40.375Z,101816.13
2018-09-30T03:05:09.088Z,101815.19
2018-09-30T03:07:42.869Z,101820.12
2018-09-30T03:10:11.515Z,101814.77
2018-09-30T03:12:41.210Z,101803.83
2018-09-30T03:15:10.014Z,101801.23
2018-09-30T03:17:38.618Z,101806.44
2018-09-30T03:20:07.409Z,101792.96
2018-09-30T03:22:35.968Z,101791.88
2018-09-30T03:25:05.392Z,101797.28
2018-09-30T03:27:34.043Z,101789.18
2018-09-30T03:30:02.954Z,101789.92
2018-09-30T03:32:32.319Z,101785.55
2018-09-30T03:35:00.985Z,101776.37
2018-09-30T03:37:29.669Z,101766.88
2018-09-30T03:39:58.303Z,101768.26
2018-09-30T03:42:26.903Z,101776.16
2018-09-30T03:44:56.102Z,101765.48
2018-09-30T03:47:24.809Z,101770.27
2018-09-30T03:49:53.479Z,101763.45
2018-09-30T03:52:23.468Z,101756.59
2018-09-30T03:54:52.534Z,101767.04
2018-09-30T03:57:21.502Z,101771.97
2018-09-30T03:59:50.105Z,101777.45
2018-09-30T04:02:19.507Z,101774.25
2018-09-30T04:04:48.101Z,101771.01
2018-09-30T04:07:16.782Z,101774.19
2018-09-30T04:09:45.402Z,101760.97
2018-09-30T04:12:14.030Z,101763.67
2018-09-30T04:14:42.572Z,101766.57
2018-09-30T04:17:11.254Z,101758.41
2018-09-30T04:19:40.040Z,101759.98
2018-09-30T04:22:08.613Z,101765.37
2018-09-30T04:24:37.165Z,101762.95
2018-09-30T04:27:05.828Z,101755.98
2018-09-30T04:29:34.425Z,101757.41
2018-09-30T04:32:03.012Z,101760.16
2018-09-30T04:34:31.642Z,101761.54
2018-09-30T04:37:00.194Z,101752.12
2018-09-30T04:39:28.810Z,101752.41
2018-09-30T04:41:57.627Z,101756.41
2018-09-30T04:44:26.212Z,101758.03
2018-09-30T04:46:54.890Z,101751.02
2018-09-30T04:49:24.074Z,101748.63
2018-09-30T04:51:52.692Z,101750.89
2018-09-30T04:54:22.592Z,101751.11
2018-09-30T04:56:52.007Z,101748.98
2018-09-30T04:59:20.950Z,101749.91
2018-09-30T05:01:49.646Z,101749.84
2018-09-30T05:04:18.287Z,101747.20
2018-09-30T05:06:46.893Z,101751.82
2018-09-30T05:09:16.273Z,101753.79
2018-09-30T05:11:46.198Z,101753.55
2018-09-30T05:14:14.973Z,101749.61
2018-09-30T05:16:43.583Z,101745.27
2018-09-30T05:19:13.085Z,101751.94
2018-09-30T05:21:41.809Z,101751.90
2018-09-30T05:24:10.403Z,101748.45
2018-09-30T05:26:39.423Z,101759.13
2018-09-30T05:29:08.513Z,101767.69
2018-09-30T05:31:37.148Z,101765.46
2018-09-30T05:34:06.522Z,101765.47
2018-09-30T05:36:35.177Z,101765.31
2018-09-30T05:39:04.946Z,101757.94
2018-09-30T05:41:33.520Z,101764.80
2018-09-30T05:44:02.113Z,101761.56
2018-09-30T05:46:30.815Z,101768.89
2018-09-30T05:48:59.514Z,101767.03
2018-09-30T05:51:28.040Z,101757.91
2018-09-30T05:53:57.505Z,101757.33
2018-09-30T05:56:26.491Z,101765.11
2018-09-30T05:58:56.010Z,101767.53
2018-09-30T06:01:25.420Z,101763.00
2018-09-30T06:03:54.081Z,101767.01
2018-09-30T06:06:22.680Z,101776.50
2018-09-30T06:08:52.060Z,101772.37
2018-09-30T06:11:20.672Z,101764.61
2018-09-30T06:13:50.349Z,101770.50
2018-09-30T06:16:18.874Z,101765.45
2018-09-30T06:18:47.554Z,101757.13
2018-09-30T06:21:16.820Z,101759.92
2018-09-30T06:23:45.472Z,101750.78
2018-09-30T06:26:14.054Z,101751.09
2018-09-30T06:28:42.621Z,101749.95
2018-09-30T06:31:11.927Z,101754.81
2018-09-30T06:33:41.191Z,101753.73
2018-09-30T06:36:09.745Z,101751.67
2018-09-30T06:38:38.411Z,101750.23
2018-09-30T06:41:07.115Z,101746.88
2018-09-30T06:43:35.696Z,101745.89
2018-09-30T06:46:04.228Z,101738.97
2018-09-30T06:48:32.771Z,101742.70
2018-09-30T06:51:01.486Z,101740.95
2018-09-30T06:53:30.224Z,101746.16
2018-09-30T06:55:59.607Z,101739.21
2018-09-30T06:58:28.378Z,101746.82
2018-09-30T07:00:57.257Z,101747.36
2018-09-30T07:03:25.872Z,101745.78
2018-09-30T07:05:55.097Z,101738.17
2018-09-30T07:08:23.831Z,101729.94
2018-09-30T07:10:52.562Z,101730.80
2018-09-30T07:13:21.248Z,101729.25
2018-09-30T07:15:50.174Z,101731.97
2018-09-30T07:18:18.728Z,101732.69
2018-09-30T07:20:47.358Z,101736.69
2018-09-30T07:23:16.199Z,101737.02
2018-09-30T07:25:45.343Z,101734.23
2018-09-30T07:28:20.007Z,101725.41
2018-09-30T07:30:48.843Z,101738.23
2018-09-30T07:33:17.972Z,101732.83
2018-09-30T07:35:46.537Z,101726.94
2018-09-30T07:38:15.155Z,101724.84
2018-09-30T07:40:43.643Z,101728.09
2018-09-30T07:43:12.337Z,101724.34
2018-09-30T07:45:41.003Z,101715.44
2018-09-30T07:48:09.593Z,101714.43
2018-09-30T07:50:38.423Z,101713.59
2018-09-30T07:53:07.052Z,101713.15
2018-09-30T07:55:35.814Z,101721.25
2018-09-30T07:58:04.367Z,101711.63
2018-09-30T08:00:33.055Z,101708.42
2018-09-30T08:03:01.713Z,101711.60
2018-09-30T08:05:30.299Z,101713.74
2018-09-30T08:07:58.969Z,101706.55
2018-09-30T08:10:27.675Z,101704.03
2018-09-30T08:12:56.298Z,101702.73
2018-09-30T08:15:24.975Z,101702.72
2018-09-30T08:17:53.622Z,101702.92
2018-09-30T08:20:22.604Z,101705.27
2018-09-30T08:22:51.201Z,101702.74
2018-09-30T08:25:19.866Z,101704.27
2018-09-30T08:27:49.198Z,101691.23
2018-09-30T08:30:17.891Z,101695.86
2018-09-30T08:32:46.590Z,101699.82
2018-09-30T08:35:15.189Z,101695.13
2018-09-30T08:42:27.799Z,101688.04
2018-09-30T08:44:56.449Z,101687.22
2018-09-30T08:50:37.987Z,101680.78
2018-09-30T08:53:06.844Z,101681.66
2018-09-30T08:55:35.651Z,101688.11
2018-09-30T08:58:04.568Z,101685.77
2018-09-30T09:00:33.252Z,101680.55
2018-09-30T09:03:01.995Z,101683.52
2018-09-30T09:05:31.961Z,101687.03
2018-09-30T09:08:01.958Z,101681.32
2018-09-30T09:10:31.407Z,101671.91
2018-09-30T09:13:00.048Z,101678.30
2018-09-30T09:15:29.092Z,101677.09
2018-09-30T09:17:57.825Z,101683.79
2018-09-30T09:20:27.188Z,101676.53
2018-09-30T09:22:56.608Z,101681.27
2018-09-30T09:25:25.412Z,101672.23
2018-09-30T09:27:53.959Z,101672.52
2018-09-30T09:30:22.807Z,101670.38
2018-09-30T09:32:51.576Z,101666.08
2018-09-30T09:35:20.260Z,101666.08
2018-09-30T09:37:48.957Z,101665.69
2018-09-30T09:40:17.709Z,101661.14
2018-09-30T09:42:46.418Z,101654.98
2018-09-30T09:45:15.898Z,101651.17
2018-09-30T09:47:44.609Z,101651.05
2018-09-30T09:50:13.262Z,101649.69
2018-09-30T09:52:43.143Z,101647.38
2018-09-30T09:55:11.768Z,101646.82
2018-09-30T09:57:40.495Z,101643.37
2018-09-30T10:00:10.314Z,101631.05
2018-09-30T10:02:40.183Z,101625.66
2018-09-30T10:05:09.092Z,101620.92
2018-09-30T10:07:37.700Z,101619.34
2018-09-30T10:10:06.467Z,101619.14
2018-09-30T10:12:35.649Z,101610.10
2018-09-30T10:15:04.973Z,101610.81
2018-09-30T10:17:33.763Z,101613.53
2018-09-30T10:20:02.502Z,101609.09
2018-09-30T10:22:31.204Z,101599.13
2018-09-30T10:24:59.732Z,101594.76
2018-09-30T10:27:28.283Z,101586.02
2018-09-30T10:29:57.153Z,101589.81
2018-09-30T10:32:26.328Z,101580.15
2018-09-30T10:34:55.159Z,101579.22
2018-09-30T10:37:23.872Z,101564.97
2018-09-30T10:39:53.024Z,101560.51
2018-09-30T10:42:21.612Z,101545.95
2018-09-30T10:44:51.567Z,101539.66
2018-09-30T10:47:20.406Z,101545.02
2018-09-30T10:49:49.807Z,101547.05
2018-09-30T10:52:18.393Z,101550.68
2018-09-30T10:54:47.008Z,101544.63
2018-09-30T10:57:15.555Z,101531.41
2018-09-30T10:59:45.074Z,101526.62
2018-09-30T11:02:13.787Z,101521.98
2018-09-30T11:04:43.211Z,101520.48
2018-09-30T11:07:11.793Z,101518.75
2018-09-30T11:09:40.547Z,101508.75
2018-09-30T11:12:09.077Z,101512.98
2018-09-30T11:14:37.821Z,101514.67
2018-09-30T11:17:06.896Z,101507.02
2018-09-30T11:19:35.517Z,101502.63
2018-09-30T11:22:04.695Z,101495.58
2018-09-30T11:24:33.792Z,101497.70
2018-09-30T11:27:02.608Z,101492.05
2018-09-30T11:29:31.172Z,101486.12
2018-09-30T11:31:59.920Z,101486.20
2018-09-30T11:34:28.432Z,101485.72
2018-09-30T11:36:57.387Z,101484.94
2018-09-30T11:39:26.736Z,101482.48
2018-09-30T11:41:55.485Z,101489.27
2018-09-30T11:44:24.098Z,101483.77
2018-09-30T11:46:53.416Z,101480.42
2018-09-30T11:49:22.334Z,101473.95
2018-09-30T11:51:51.867Z,101476.12
2018-09-30T11:54:20.434Z,101474.38
2018-09-30T11:56:49.083Z,101464.69
2018-09-30T11:59:17.596Z,101462.44
2018-09-30T12:01:46.309Z,101455.05
2018-09-30T12:04:14.908Z,101457.59
2018-09-30T12:06:43.877Z,101447.30
2018-09-30T12:09:12.474Z,101446.48
2018-09-30T12:11:42.036Z,101445.36
2018-09-30T12:14:10.619Z,101435.84
2018-09-30T12:16:39.299Z,101440.71
2018-09-30T12:19:08.001Z,101438.36
2018-09-30T12:21:37.473Z,101429.45
2018-09-30T12:24:06.071Z,101418.73
2018-09-30T12:26:34.924Z,101411.27
2018-09-30T12:29:03.607Z,101405.41
2018-09-30T12:31:32.387Z,101403.75
2018-09-30T12:34:01.946Z,101403.09
2018-09-30T12:36:30.574Z,101399.31
2018-09-30T12:38:59.286Z,101397.11
2018-09-30T12:41:28.732Z,101388.58
2018-09-30T12:43:57.434Z,101388.62
2018-09-30T12:46:25.991Z,101395.73
2018-09-30T12:48:54.856Z,101381.82
2018-09-30T12:51:23.508Z,101389.28
2018-09-30T12:53:52.990Z,101386.03
2018-09-30T12:56:21.861Z,101383.72
2018-09-30T12:58:50.487Z,101382.08
2018-09-30T13:01:19.102Z,101377.14
2018-09-30T13:03:47.837Z,101371.90
2018-09-30T13:06:17.173Z,101375.73
2018-09-30T13:08:45.758Z,101369.17
2018-09-30T13:11:14.356Z,101363.91
2018-09-30T13:13:43.007Z,101374.33
2018-09-30T13:16:11.598Z,101369.16
2018-09-30T13:18:40.208Z,101358.81
2018-09-30T13:21:08.861Z,101351.61
2018-09-30T13:23:37.682Z,101348.27
2018-09-30T13:26:06.436Z,101347.31
2018-09-30T13:28:34.960Z,101351.70
2018-09-30T13:31:03.545Z,101342.89
2018-09-30T13:33:32.323Z,101339.52
2018-09-30T13:36:00.893Z,101340.94
2018-09-30T13:38:29.542Z,101345.28
2018-09-30T13:40:58.354Z,101347.83
2018-09-30T13:43:27.037Z,101341.37
2018-09-30T13:45:55.638Z,101340.53
2018-09-30T13:48:24.176Z,101342.92
2018-09-30T13:50:52.783Z,101344.47
2018-09-30T13:53:21.402Z,101349.53
2018-09-30T13:55:50.012Z,101348.05
2018-09-30T13:58:19.349Z,101351.02
2018-09-30T14:00:48.676Z,101349.91
2018-09-30T14:03:17.818Z,101343.64
2018-09-30T14:05:46.356Z,101342.00
2018-09-30T14:08:15.102Z,101341.97
2018-09-30T14:10:45.288Z,101335.35
2018-09-30T14:13:14.262Z,101338.10
2018-09-30T14:15:43.057Z,101328.98
2018-09-30T14:18:11.628Z,101326.45
2018-09-30T14:20:40.285Z,101320.58
2018-09-30T14:23:09.065Z,101323.02
2018-09-30T14:25:37.616Z,101323.35
2018-09-30T14:28:07.474Z,101327.30
2018-09-30T14:30:37.361Z,101316.54
2018-09-30T14:33:06.367Z,101318.81
2018-09-30T14:35:35.161Z,101317.03
2018-09-30T14:38:03.752Z,101311.81
2018-09-30T14:40:32.488Z,101307.87
2018-09-30T14:43:01.112Z,101303.09
2018-09-30T14:45:30.026Z,101306.37
2018-09-30T14:47:59.059Z,101295.94
2018-09-30T14:50:27.596Z,101296.19
2018-09-30T14:52:56.315Z,101300.36
2018-09-30T14:55:25.117Z,101298.05
2018-09-30T14:57:53.818Z,101301.83
2018-09-30T15:00:22.466Z,101295.78
2018-09-30T15:02:51.270Z,101303.95
2018-09-30T15:05:20.467Z,101298.83
2018-09-30T15:07:49.117Z,101293.30
2018-09-30T15:10:17.688Z,101291.03
2018-09-30T15:12:46.365Z,101293.96
2018-09-30T15:15:15.112Z,101295.29
2018-09-30T15:17:44.461Z,101297.97
2018-09-30T15:20:13.710Z,101297.61
2018-09-30T15:22:42.303Z,101296.01
2018-09-30T15:25:11.067Z,101288.34
2018-09-30T15:27:39.711Z,101297.17
2018-09-30T15:30:09.166Z,101292.98
2018-09-30T15:32:37.728Z,101281.55
2018-09-30T15:35:06.440Z,101291.56
2018-09-30T15:37:35.067Z,101286.55
2018-09-30T15:40:04.348Z,101285.42
2018-09-30T15:42:33.007Z,101281.55
2018-09-30T15:45:01.769Z,101279.46
2018-09-30T15:47:30.650Z,101286.80
2018-09-30T15:49:59.461Z,101282.66
2018-09-30T15:52:28.146Z,101283.17
2018-09-30T15:54:57.622Z,101284.65
2018-09-30T15:57:26.304Z,101286.48
2018-09-30T15:59:54.902Z,101285.63
2018-09-30T16:02:23.667Z,101286.78
2018-09-30T16:04:52.318Z,101285.34
2018-09-30T16:07:21.028Z,101279.25
2018-09-30T16:09:50.452Z,101283.48
2018-09-30T16:12:19.151Z,101289.95
2018-09-30T16:14:47.810Z,101292.76
2018-09-30T16:17:16.878Z,101293.43
2018-09-30T16:19:45.614Z,101300.50
2018-09-30T16:22:14.713Z,101296.65
2018-09-30T16:24:44.787Z,101301.02
2018-09-30T16:27:13.338Z,101301.64
2018-09-30T16:29:41.920Z,101300.50
2018-09-30T16:32:11.233Z,101307.66
2018-09-30T16:34:39.933Z,101302.48
2018-09-30T16:37:08.797Z,101297.71
2018-09-30T16:39:38.522Z,101299.30
2018-09-30T16:42:07.233Z,101300.28
2018-09-30T16:44:35.943Z,101298.28
2018-09-30T16:47:04.605Z,101296.54
2018-09-30T16:49:33.287Z,101295.69
2018-09-30T16:52:01.871Z,101303.75
2018-09-30T16:54:30.606Z,101304.16
2018-09-30T16:56:59.320Z,101301.34
2018-09-30T16:59:28.425Z,101301.86
2018-09-30T17:01:57.873Z,101310.40
2018-09-30T17:04:26.481Z,101310.80
2018-09-30T17:06:55.180Z,101312.71
2018-09-30T17:09:24.625Z,101318.60
2018-09-30T17:11:53.371Z,101314.84
2018-09-30T17:14:22.081Z,101317.47
2018-09-30T17:16:50.775Z,101312.98
2018-09-30T17:19:20.017Z,101310.01
2018-09-30T17:21:48.876Z,101305.83
2018-09-30T17:24:17.573Z,101317.77
2018-09-30T17:26:46.956Z,101318.03
2018-09-30T17:29:15.609Z,101324.70
2018-09-30T17:31:44.922Z,101323.26
2018-09-30T17:34:14.513Z,101326.80
2018-09-30T17:36:43.908Z,101333.36
2018-09-30T17:39:13.411Z,101336.41
2018-09-30T17:41:42.062Z,101334.40
2018-09-30T17:44:11.022Z,101336.88
2018-09-30T17:46:39.891Z,101333.65
2018-09-30T17:49:08.792Z,101329.33
2018-09-30T17:51:38.136Z,101329.73
2018-09-30T17:54:07.068Z,101334.44
2018-09-30T17:56:35.693Z,101329.83
2018-09-30T17:59:04.462Z,101328.08
2018-09-30T18:01:33.892Z,101328.48
2018-09-30T18:04:03.216Z,101328.05
2018-09-30T18:06:32.586Z,101326.19
2018-09-30T18:09:01.951Z,101333.37
2018-09-30T18:11:31.106Z,101333.92
2018-09-30T18:13:59.757Z,101331.80
2018-09-30T18:16:28.332Z,101334.30
2018-09-30T18:18:57.269Z,101333.73
2018-09-30T18:21:25.793Z,101339.33
2018-09-30T18:23:54.401Z,101337.89
2018-09-30T18:26:23.437Z,101343.36
2018-09-30T18:28:52.667Z,101336.09
2018-09-30T18:31:21.356Z,101344.41
2018-09-30T18:33:50.343Z,101338.61
2018-09-30T18:36:19.083Z,101334.77
2018-09-30T18:38:47.700Z,101333.69
2018-09-30T18:41:17.002Z,101330.47
2018-09-30T18:43:46.625Z,101334.14
2018-09-30T18:46:15.522Z,101335.56
2018-09-30T18:48:45.291Z,101326.80
2018-09-30T18:51:15.263Z,101330.78
2018-09-30T18:53:45.240Z,101327.99
2018-09-30T18:56:15.329Z,101333.59
2018-09-30T18:58:45.253Z,101333.89
2018-09-30T19:01:15.252Z,101333.55
2018-09-30T19:08:38.448Z,101335.99
2018-09-30T19:11:07.356Z,101336.89
2018-09-30T19:13:36.319Z,101335.52
2018-09-30T19:16:05.292Z,101337.69
2018-09-30T19:18:34.122Z,101343.00
2018-09-30T19:21:03.055Z,101345.39
2018-09-30T19:23:31.905Z,101335.94
2018-09-30T19:26:00.605Z,101341.47
2018-09-30T19:28:29.170Z,101342.03
2018-09-30T19:30:57.808Z,101342.60
2018-09-30T19:33:27.125Z,101349.56
2018-09-30T19:35:55.872Z,101344.34
2018-09-30T19:38:24.502Z,101342.34
2018-09-30T19:40:53.226Z,101338.78
2018-09-30T19:43:21.978Z,101336.34
2018-09-30T19:45:50.528Z,101337.20
2018-09-30T19:48:19.278Z,101339.22
2018-09-30T19:50:47.896Z,101333.31
2018-09-30T19:53:17.486Z,101333.80
2018-09-30T19:55:46.268Z,101338.93
2018-09-30T19:58:15.146Z,101340.72
2018-09-30T20:00:43.938Z,101340.14
2018-09-30T20:03:12.696Z,101340.09
2018-09-30T20:05:41.972Z,101331.75
2018-09-30T20:08:10.602Z,101330.78
2018-09-30T20:10:40.047Z,101331.75
2018-09-30T20:13:09.192Z,101326.86
2018-09-30T20:15:37.857Z,101330.45
2018-09-30T20:18:06.601Z,101335.67
2018-09-30T20:20:35.353Z,101337.98
2018-09-30T20:23:04.103Z,101330.11
2018-09-30T20:25:32.708Z,101330.27
2018-09-30T20:28:02.256Z,101322.92
2018-09-30T20:30:31.156Z,101326.13
2018-09-30T20:32:59.754Z,101322.22
2018-09-30T20:35:28.611Z,101316.58
2018-09-30T20:37:57.227Z,101315.03
2018-09-30T20:40:26.047Z,101319.77
2018-09-30T20:42:54.718Z,101325.88
2018-09-30T20:45:23.542Z,101323.37
2018-09-30T20:47:52.313Z,101326.77
2018-09-30T20:50:21.499Z,101323.06
2018-09-30T20:52:50.226Z,101322.25
2018-09-30T20:55:19.736Z,101318.33
2018-09-30T20:57:48.405Z,101316.83
2018-09-30T21:00:17.017Z,101317.80
2018-09-30T21:02:45.747Z,101319.49
2018-09-30T21:05:30.345Z,101317.39
2018-09-30T21:07:59.689Z,101318.18
2018-09-30T21:10:28.350Z,101324.05
2018-09-30T21:12:57.700Z,101321.71
2018-09-30T21:15:26.946Z,101313.23
2018-09-30T21:17:56.196Z,101318.92
2018-09-30T21:20:24.896Z,101313.45
2018-09-30T21:22:53.606Z,101313.95
2018-09-30T21:25:22.160Z,101316.17
2018-09-30T21:27:50.965Z,101315.36
2018-09-30T21:30:20.360Z,101318.75
2018-09-30T21:32:49.645Z,101320.94
2018-09-30T21:35:18.374Z,101327.33
2018-09-30T21:37:47.040Z,101332.07
2018-09-30T21:40:17.269Z,101322.92
2018-09-30T21:42:46.630Z,101322.84
2018-09-30T21:45:15.615Z,101324.69
2018-09-30T21:47:44.284Z,101324.56
2018-09-30T21:50:12.882Z,101319.89
2018-09-30T21:52:47.843Z,101320.97
2018-09-30T21:55:16.475Z,101317.64
2018-09-30T21:57:46.535Z,101315.81
2018-09-30T22:00:19.679Z,101315.48
2018-09-30T22:02:49.131Z,101311.60
2018-09-30T22:05:17.762Z,101308.66
2018-09-30T22:07:46.492Z,101305.11
2018-09-30T22:10:16.442Z,101303.75
2018-09-30T22:12:45.487Z,101307.98
2018-09-30T22:15:14.216Z,101304.89
2018-09-30T22:17:42.975Z,101315.27
2018-09-30T22:20:11.522Z,101314.44
2018-09-30T22:22:40.451Z,101319.04
2018-09-30T22:25:09.759Z,101316.20
2018-09-30T22:27:38.379Z,101315.20
2018-09-30T22:30:07.163Z,101314.69
2018-09-30T22:32:36.414Z,101313.52
2018-09-30T22:35:05.120Z,101306.84
2018-09-30T22:37:33.760Z,101313.45
2018-09-30T22:40:02.380Z,101309.31
2018-09-30T22:42:31.531Z,101312.09
2018-09-30T22:45:00.017Z,101311.84
2018-09-30T22:47:28.596Z,101306.39
2018-09-30T22:49:58.109Z,101311.13
2018-09-30T22:52:26.855Z,101304.66
2018-09-30T22:54:55.545Z,101309.62
2018-09-30T22:57:25.101Z,101308.22
2018-09-30T22:59:54.255Z,101308.00
2018-09-30T23:02:22.945Z,101299.12
2018-09-30T23:04:51.661Z,101308.03
2018-09-30T23:07:20.959Z,101297.76
2018-09-30T23:09:50.519Z,101298.19
2018-09-30T23:12:19.158Z,101299.75
2018-09-30T23:14:47.769Z,101306.41
2018-09-30T23:17:16.564Z,101309.69
2018-09-30T23:19:45.634Z,101307.87
2018-09-30T23:22:15.054Z,101302.83
2018-09-30T23:24:43.884Z,101307.58
2018-09-30T23:27:12.461Z,101302.89
2018-09-30T23:29:41.045Z,101303.77
2018-09-30T23:32:09.676Z,101305.91
2018-09-30T23:34:38.342Z,101298.00
2018-09-30T23:37:07.159Z,101304.78
2018-09-30T23:39:35.945Z,101301.97
2018-09-30T23:42:04.537Z,101306.95
2018-09-30T23:44:33.116Z,101316.16
2018-09-30T23:47:01.659Z,101311.55
2018-09-30T23:49:30.298Z,101312.91
2018-09-30T23:51:59.666Z,101312.69
2018-09-30T23:54:28.330Z,101309.72
2018-09-30T23:56:57.544Z,101311.33
2018-09-30T23:59:26.156Z,101317.41
